createdAt,value
2023-10-28T00:01:14.276Z,10.77
2023-10-28T00:03:09.920Z,11.30
2023-10-28T00:05:07.177Z,11.20
2023-10-28T00:07:05.042Z,11.43
2023-10-28T00:09:01.166Z,12.43
2023-10-28T00:10:53.719Z,12.07
2023-10-28T00:12:48.957Z,12.50
2023-10-28T00:14:42.036Z,12.00
2023-10-28T00:16:38.080Z,12.53
2023-10-28T00:18:34.785Z,12.47
2023-10-28T00:20:30.785Z,12.97
2023-10-28T00:22:28.618Z,12.13
2023-10-28T00:24:24.028Z,12.70
2023-10-28T00:26:16.522Z,12.07
2023-10-28T00:28:12.141Z,12.53
2023-10-28T00:30:09.305Z,11.97
2023-10-28T00:32:05.809Z,12.37
2023-10-28T00:34:01.336Z,13.00
2023-10-28T00:35:53.868Z,12.40
2023-10-28T00:37:51.885Z,12.40
2023-10-28T00:39:45.081Z,11.10
2023-10-28T00:41:40.337Z,12.67
2023-10-28T00:43:36.172Z,11.37
2023-10-28T00:45:31.369Z,12.20
2023-10-28T00:47:27.347Z,11.67
2023-10-28T00:49:22.796Z,11.30
2023-10-28T00:51:17.944Z,11.57
2023-10-28T00:53:16.599Z,11.87
2023-10-28T00:55:11.757Z,11.97
2023-10-28T00:57:07.124Z,12.23
2023-10-28T00:59:02.792Z,12.17
2023-10-28T01:00:58.060Z,12.60
2023-10-28T01:02:54.074Z,12.40
2023-10-28T01:04:46.765Z,12.60
2023-10-28T01:06:43.071Z,12.43
2023-10-28T01:08:41.345Z,11.90
2023-10-28T01:10:37.365Z,11.87
2023-10-28T01:12:29.828Z,12.00
2023-10-28T01:14:25.288Z,12.93
2023-10-28T01:16:20.526Z,11.43
2023-10-28T01:18:15.973Z,11.57
2023-10-28T01:20:12.671Z,10.33
2023-10-28T01:22:07.873Z,10.30
2023-10-28T01:24:04.528Z,10.50
2023-10-28T01:26:00.857Z,10.33
2023-10-28T01:27:57.353Z,10.30
2023-10-28T01:29:52.419Z,10.83
2023-10-28T01:31:44.869Z,9.70
2023-10-28T01:33:40.331Z,9.93
2023-10-28T01:35:32.996Z,10.27
2023-10-28T01:37:30.755Z,9.80
2023-10-28T01:39:26.185Z,9.40
2023-10-28T01:41:21.383Z,9.23
2023-10-28T01:43:17.477Z,9.77
2023-10-28T01:45:11.871Z,9.20
2023-10-28T01:47:09.567Z,8.90
2023-10-28T01:49:05.786Z,9.53
2023-10-28T01:50:58.392Z,8.83
2023-10-28T01:52:56.509Z,9.33
2023-10-28T01:54:49.171Z,9.33
2023-10-28T01:56:44.443Z,9.53
2023-10-28T01:58:39.965Z,9.23
2023-10-28T02:00:35.247Z,8.40
2023-10-28T02:02:32.576Z,8.40
2023-10-28T02:04:27.722Z,7.73
2023-10-28T02:06:25.607Z,7.40
2023-10-28T02:08:21.653Z,7.70
2023-10-28T02:10:16.963Z,7.37
2023-10-28T02:12:12.249Z,7.50
2023-10-28T02:14:09.960Z,6.67
2023-10-28T02:16:05.137Z,7.60
2023-10-28T02:18:00.493Z,7.07
2023-10-28T02:19:57.926Z,7.20
2023-10-28T02:22:06.692Z,6.87
2023-10-28T02:24:11.646Z,7.40
2023-10-28T02:26:06.736Z,6.63
2023-10-28T02:28:01.912Z,6.90
2023-10-28T02:29:57.398Z,6.40
2023-10-28T02:31:52.574Z,6.23
2023-10-28T02:33:47.843Z,6.57
2023-10-28T02:35:43.346Z,5.83
2023-10-28T02:37:38.509Z,5.90
2023-10-28T02:39:37.366Z,5.60
2023-10-28T02:41:29.882Z,5.30
2023-10-28T02:43:25.099Z,5.40
2023-10-28T02:45:20.734Z,5.20
2023-10-28T02:47:13.270Z,4.77
2023-10-28T02:49:30.749Z,4.50
2023-10-28T02:51:30.915Z,4.20
2023-10-28T02:53:23.841Z,4.30
2023-10-28T02:55:22.866Z,4.20
2023-10-28T02:57:17.943Z,4.30
2023-10-28T02:59:15.805Z,4.00
2023-10-28T03:01:09.548Z,4.47
2023-10-28T03:03:06.526Z,4.50
2023-10-28T03:05:02.196Z,4.23
2023-10-28T03:06:57.354Z,5.00
2023-10-28T03:08:49.971Z,4.87
2023-10-28T03:10:48.008Z,5.37
2023-10-28T03:12:43.094Z,4.50
2023-10-28T03:14:35.726Z,4.73
2023-10-28T03:16:31.189Z,4.80
2023-10-28T03:18:23.735Z,4.83
2023-10-28T03:20:20.631Z,4.77
2023-10-28T03:22:16.997Z,5.90
2023-10-28T03:24:12.621Z,7.40
2023-10-28T03:26:12.121Z,5.43
2023-10-28T03:28:08.137Z,7.07
2023-10-28T03:30:03.896Z,4.80
2023-10-28T03:31:59.884Z,5.20
2023-10-28T03:33:55.979Z,4.57
2023-10-28T03:35:51.549Z,3.90
2023-10-28T03:37:46.697Z,3.93
2023-10-28T03:39:42.112Z,3.80
2023-10-28T03:41:41.307Z,3.57
2023-10-28T03:43:33.831Z,3.40
2023-10-28T03:45:29.473Z,4.03
2023-10-28T03:47:26.029Z,3.70
2023-10-28T03:49:21.182Z,3.63
2023-10-28T03:51:13.833Z,3.87
2023-10-28T03:53:09.344Z,3.57
2023-10-28T03:55:02.012Z,3.77
2023-10-28T03:57:00.415Z,3.93
2023-10-28T03:58:55.952Z,3.90
2023-10-28T04:00:50.367Z,3.40
2023-10-28T04:02:45.941Z,3.50
2023-10-28T04:04:38.428Z,4.30
2023-10-28T04:06:33.463Z,6.60
2023-10-28T04:08:29.154Z,7.40
2023-10-28T04:10:24.568Z,3.23
2023-10-28T04:12:22.532Z,3.10
2023-10-28T04:14:17.812Z,3.23
2023-10-28T04:16:10.348Z,2.60
2023-10-28T04:18:05.943Z,2.93
2023-10-28T04:20:01.882Z,2.27
2023-10-28T04:21:58.240Z,2.60
2023-10-28T04:23:53.615Z,2.80
2023-10-28T04:25:48.730Z,2.60
2023-10-28T04:27:44.424Z,2.60
2023-10-28T04:29:39.547Z,2.50
2023-10-28T04:31:34.734Z,2.43
2023-10-28T04:33:31.305Z,2.47
2023-10-28T04:35:29.173Z,1.90
2023-10-28T04:37:26.052Z,2.00
2023-10-28T04:39:24.980Z,2.00
2023-10-28T04:41:17.858Z,2.03
2023-10-28T04:43:15.617Z,2.30
2023-10-28T04:45:11.853Z,2.07
2023-10-28T04:47:07.834Z,2.10
2023-10-28T04:49:03.056Z,2.40
2023-10-28T04:50:58.716Z,2.40
2023-10-28T04:52:53.824Z,1.87
2023-10-28T04:54:49.503Z,2.27
2023-10-28T04:56:44.947Z,2.47
2023-10-28T04:58:43.406Z,2.60
2023-10-28T05:00:39.259Z,2.53
2023-10-28T05:02:35.551Z,3.03
2023-10-28T05:04:31.229Z,6.60
2023-10-28T05:06:26.484Z,5.10
2023-10-28T05:08:19.204Z,4.73
2023-10-28T05:10:14.636Z,4.67
2023-10-28T05:12:10.050Z,2.67
2023-10-28T05:14:11.152Z,3.03
2023-10-28T05:16:06.790Z,2.73
2023-10-28T05:18:01.880Z,2.87
2023-10-28T05:19:57.455Z,2.70
2023-10-28T05:21:52.584Z,3.10
2023-10-28T05:23:45.449Z,2.50
2023-10-28T05:25:40.777Z,2.60
2023-10-28T05:27:33.238Z,2.80
2023-10-28T05:29:31.277Z,2.40
2023-10-28T05:31:26.418Z,2.40
2023-10-28T05:33:21.914Z,2.53
2023-10-28T05:35:17.453Z,2.53
2023-10-28T05:37:13.174Z,2.80
2023-10-28T05:39:09.070Z,2.33
2023-10-28T05:41:01.891Z,2.20
2023-10-28T05:42:57.775Z,2.80
2023-10-28T05:44:52.968Z,2.80
2023-10-28T05:46:48.804Z,2.77
2023-10-28T05:48:41.275Z,2.53
2023-10-28T05:50:36.678Z,2.67
2023-10-28T05:52:31.833Z,2.70
2023-10-28T05:54:26.994Z,2.73
2023-10-28T05:56:20.225Z,3.10
2023-10-28T05:58:15.305Z,3.23
2023-10-28T06:00:14.127Z,3.20
2023-10-28T06:02:09.662Z,3.20
2023-10-28T06:04:05.068Z,3.20
2023-10-28T06:06:00.205Z,4.30
2023-10-28T06:07:55.639Z,3.33
2023-10-28T06:09:52.294Z,3.10
2023-10-28T06:11:47.341Z,3.30
2023-10-28T06:13:42.849Z,3.13
2023-10-28T06:15:42.697Z,3.33
2023-10-28T06:17:36.482Z,3.60
2023-10-28T06:19:31.674Z,3.50
2023-10-28T06:21:24.715Z,3.60
2023-10-28T06:23:19.901Z,3.87
2023-10-28T06:25:12.840Z,3.93
2023-10-28T06:27:09.883Z,4.33
2023-10-28T06:29:07.245Z,4.10
2023-10-28T06:31:07.235Z,4.07
2023-10-28T06:33:03.883Z,4.27
2023-10-28T06:35:01.772Z,4.80
2023-10-28T06:36:57.059Z,30.07
2023-10-28T06:38:52.792Z,6.03
2023-10-28T06:40:48.938Z,7.33
2023-10-28T06:42:41.825Z,5.87
2023-10-28T06:44:37.010Z,6.20
2023-10-28T06:46:32.214Z,5.10
2023-10-28T06:48:27.856Z,5.77
2023-10-28T06:50:21.285Z,5.93
2023-10-28T06:52:17.148Z,5.80
2023-10-28T06:54:12.525Z,5.30
2023-10-28T06:56:09.140Z,5.50
2023-10-28T06:58:04.461Z,6.63
2023-10-28T06:59:57.898Z,5.33
2023-10-28T07:01:56.026Z,6.03
2023-10-28T07:03:52.315Z,5.80
2023-10-28T07:05:47.700Z,6.10
2023-10-28T07:07:43.353Z,6.63
2023-10-28T07:09:37.105Z,6.63
2023-10-28T07:11:33.526Z,6.67
2023-10-28T07:13:28.974Z,6.97
2023-10-28T07:15:25.152Z,6.60
2023-10-28T07:17:20.384Z,6.87
2023-10-28T07:19:16.434Z,6.93
2023-10-28T07:21:12.209Z,6.90
2023-10-28T07:23:05.265Z,7.37
2023-10-28T07:25:00.639Z,7.00
2023-10-28T07:26:55.028Z,7.00
2023-10-28T07:28:50.637Z,6.80
2023-10-28T07:30:49.786Z,7.30
2023-10-28T07:32:47.586Z,7.70
2023-10-28T07:34:40.880Z,7.40
2023-10-28T07:36:36.347Z,7.93
2023-10-28T07:38:33.264Z,8.00
2023-10-28T07:40:26.366Z,8.13
2023-10-28T07:42:24.436Z,7.30
2023-10-28T07:44:20.224Z,8.20
2023-10-28T07:46:16.087Z,8.97
2023-10-28T07:48:12.709Z,8.57
2023-10-28T07:50:10.411Z,8.93
2023-10-28T07:52:04.766Z,8.80
2023-10-28T07:54:00.579Z,8.77
2023-10-28T07:55:56.108Z,8.17
2023-10-28T07:57:51.955Z,8.80
2023-10-28T07:59:48.028Z,8.63
2023-10-28T08:01:44.106Z,8.17
2023-10-28T08:03:39.348Z,8.30
2023-10-28T08:05:35.031Z,8.33
2023-10-28T08:07:27.836Z,8.80
2023-10-28T08:09:23.979Z,9.20
2023-10-28T08:11:17.787Z,9.40
2023-10-28T08:13:13.256Z,9.00
2023-10-28T08:15:08.955Z,8.90
2023-10-28T08:17:05.648Z,9.90
2023-10-28T08:19:04.990Z,11.40
2023-10-28T08:21:01.284Z,10.80
2023-10-28T08:23:01.097Z,12.33
2023-10-28T08:25:09.739Z,10.03
2023-10-28T08:27:19.797Z,9.57
2023-10-28T08:29:32.818Z,10.60
2023-10-28T08:31:45.779Z,11.23
2023-10-28T08:33:39.192Z,10.07
2023-10-28T08:35:38.778Z,9.53
2023-10-28T08:37:34.108Z,10.43
2023-10-28T08:39:27.373Z,10.83
2023-10-28T08:41:26.013Z,10.87
2023-10-28T08:43:18.964Z,10.10
2023-10-28T08:45:14.775Z,10.00
2023-10-28T08:47:10.998Z,10.27
2023-10-28T08:49:06.390Z,11.07
2023-10-28T08:51:11.020Z,11.57
2023-10-28T08:53:05.313Z,11.27
2023-10-28T08:55:03.321Z,13.83
2023-10-28T08:57:00.519Z,13.10
2023-10-28T08:58:56.959Z,10.50
2023-10-28T09:00:55.196Z,10.97
2023-10-28T09:02:53.194Z,10.40
2023-10-28T09:04:46.795Z,10.77
2023-10-28T09:06:44.656Z,10.90
2023-10-28T09:08:39.597Z,10.70
2023-10-28T09:10:35.976Z,11.33
2023-10-28T09:12:31.155Z,11.10
2023-10-28T09:14:26.617Z,10.87
2023-10-28T09:16:22.009Z,11.00
2023-10-28T09:18:17.817Z,10.77
2023-10-28T09:20:10.930Z,10.10
2023-10-28T09:22:10.920Z,10.03
2023-10-28T09:24:06.849Z,9.77
2023-10-28T09:26:02.175Z,10.17
2023-10-28T09:27:57.702Z,10.23
2023-10-28T09:29:52.954Z,10.57
2023-10-28T09:31:48.069Z,10.90
2023-10-28T09:33:43.993Z,9.97
2023-10-28T09:35:40.158Z,11.30
2023-10-28T09:37:39.501Z,11.33
2023-10-28T09:39:40.229Z,14.53
2023-10-28T09:41:36.891Z,15.47
2023-10-28T09:43:34.141Z,11.17
2023-10-28T09:45:30.912Z,11.03
2023-10-28T09:47:29.177Z,11.80
2023-10-28T09:49:27.936Z,19.37
2023-10-28T09:51:26.247Z,16.93
2023-10-28T09:53:30.064Z,26.87
2023-10-28T09:55:29.519Z,15.20
2023-10-28T09:57:25.603Z,13.27
2023-10-28T09:59:25.674Z,12.20
2023-10-28T10:01:36.856Z,12.80
2023-10-28T10:03:55.340Z,12.27
2023-10-28T10:06:14.147Z,11.73
2023-10-28T10:08:37.513Z,11.43
2023-10-28T10:10:49.791Z,11.50
2023-10-28T10:13:02.421Z,11.50
2023-10-28T10:16:02.720Z,13.40
2023-10-28T10:18:48.893Z,13.00
2023-10-28T10:23:59.903Z,14.93
2023-10-28T10:26:02.193Z,11.10
2023-10-28T10:27:57.395Z,10.03
2023-10-28T10:29:55.012Z,9.20
2023-10-28T10:31:56.743Z,9.20
2023-10-28T10:34:03.553Z,9.10
2023-10-28T10:36:05.397Z,8.80
2023-10-28T10:38:08.116Z,8.27
2023-10-28T10:40:15.325Z,8.17
2023-10-28T10:42:11.377Z,9.57
2023-10-28T10:44:28.699Z,15.03
2023-10-28T10:46:24.333Z,14.77
2023-10-28T10:48:18.314Z,14.25
2023-10-28T10:50:16.734Z,10.75
2023-10-28T10:52:12.787Z,8.00
2023-10-28T10:54:08.949Z,8.88
2023-10-28T10:56:06.332Z,8.88
2023-10-28T10:58:09.599Z,8.52
2023-10-28T11:00:15.555Z,7.55
2023-10-28T11:02:14.381Z,8.07
2023-10-28T11:04:09.578Z,9.30
2023-10-28T11:06:07.745Z,8.55
2023-10-28T11:08:06.525Z,8.53
2023-10-28T11:10:02.456Z,9.17
2023-10-28T11:12:01.209Z,7.87
2023-10-28T11:13:57.033Z,7.60
2023-10-28T11:15:56.972Z,8.23
2023-10-28T11:17:53.331Z,7.40
2023-10-28T11:19:52.671Z,7.03
2023-10-28T11:21:48.886Z,7.50
2023-10-28T11:23:45.028Z,8.23
2023-10-28T11:25:44.077Z,7.20
2023-10-28T11:27:42.735Z,8.07
2023-10-28T11:29:38.517Z,6.38
2023-10-28T11:31:35.639Z,7.47
2023-10-28T11:33:30.795Z,6.73
2023-10-28T11:35:26.535Z,6.27
2023-10-28T11:37:22.145Z,6.10
2023-10-28T11:39:20.622Z,6.67
2023-10-28T11:41:21.581Z,6.35
2023-10-28T11:43:23.211Z,5.80
2023-10-28T11:45:20.330Z,6.30
2023-10-28T11:47:31.471Z,6.80
2023-10-28T11:49:28.222Z,6.53
2023-10-28T11:51:32.096Z,6.87
2023-10-28T11:53:25.738Z,7.40
2023-10-28T11:55:32.907Z,5.87
2023-10-28T12:01:13.529Z,6.63
2023-10-28T12:11:01.884Z,7.30
2023-10-28T12:13:19.967Z,6.80
2023-10-28T12:18:06.401Z,6.63
2023-10-28T12:20:06.596Z,6.70
2023-10-28T12:22:00.298Z,7.67
2023-10-28T12:23:58.667Z,7.20
2023-10-28T12:25:59.723Z,6.63
2023-10-28T12:27:56.341Z,8.03
2023-10-28T12:29:49.491Z,7.30
2023-10-28T12:31:45.426Z,7.63
2023-10-28T12:33:39.252Z,9.37
2023-10-28T12:35:35.575Z,7.93
2023-10-28T12:37:31.299Z,8.27
2023-10-28T12:39:31.058Z,8.30
2023-10-28T12:41:34.225Z,8.13
2023-10-28T12:43:29.877Z,7.63
2023-10-28T12:45:25.500Z,8.40
2023-10-28T12:47:20.959Z,8.33
2023-10-28T12:49:18.738Z,7.97
2023-10-28T12:51:13.836Z,8.60
2023-10-28T12:53:12.177Z,9.57
2023-10-28T12:55:10.564Z,8.43
2023-10-28T12:57:06.544Z,8.37
2023-10-28T12:59:02.083Z,9.38
2023-10-28T13:01:02.327Z,10.27
2023-10-28T13:03:00.657Z,9.33
2023-10-28T13:04:56.441Z,9.50
2023-10-28T13:06:52.227Z,9.13
2023-10-28T13:08:47.317Z,9.43
2023-10-28T13:10:42.546Z,9.40
2023-10-28T13:12:38.142Z,8.47
2023-10-28T13:14:33.640Z,9.30
2023-10-28T13:16:36.402Z,8.37
2023-10-28T13:18:46.998Z,7.50
2023-10-28T13:20:55.033Z,7.20
2023-10-28T13:22:52.955Z,7.57
2023-10-28T13:24:50.007Z,7.43
2023-10-28T13:26:51.352Z,7.67
2023-10-28T13:28:47.319Z,6.87
2023-10-28T13:30:44.049Z,6.10
2023-10-28T13:32:52.028Z,6.70
2023-10-28T13:34:51.229Z,6.73
2023-10-28T13:36:46.368Z,6.60
2023-10-28T13:38:41.679Z,6.13
2023-10-28T13:40:37.470Z,6.60
2023-10-28T13:42:35.429Z,6.53
2023-10-28T13:44:31.097Z,6.63
2023-10-28T13:46:29.057Z,6.30
2023-10-28T13:48:22.120Z,6.10
2023-10-28T13:50:23.912Z,7.27
2023-10-28T13:52:19.650Z,6.67
2023-10-28T13:54:16.547Z,6.30
2023-10-28T13:56:12.788Z,5.50
2023-10-28T13:58:08.285Z,6.33
2023-10-28T14:00:07.467Z,7.03
2023-10-28T14:02:03.844Z,6.93
2023-10-28T14:04:04.028Z,6.43
2023-10-28T14:06:00.362Z,6.80
2023-10-28T14:07:55.708Z,6.20
2023-10-28T14:09:51.673Z,6.30
2023-10-28T14:11:48.755Z,5.40
2023-10-28T14:13:46.598Z,6.17
2023-10-28T14:15:44.025Z,5.90
2023-10-28T14:17:44.187Z,6.00
2023-10-28T14:22:58.189Z,5.87
2023-10-28T14:24:57.416Z,5.67
2023-10-28T14:26:54.621Z,6.47
2023-10-28T14:28:56.371Z,5.77
2023-10-28T14:30:48.958Z,8.73
2023-10-28T14:32:46.237Z,6.40
2023-10-28T14:34:39.247Z,6.57
2023-10-28T14:36:34.714Z,6.20
2023-10-28T14:38:30.937Z,6.20
2023-10-28T14:40:26.533Z,5.67
2023-10-28T14:42:19.080Z,5.70
2023-10-28T14:44:17.004Z,7.27
2023-10-28T14:46:13.686Z,6.57
2023-10-28T14:48:09.766Z,6.00
2023-10-28T14:50:07.978Z,7.38
2023-10-28T14:52:02.281Z,6.40
2023-10-28T14:54:00.997Z,6.20
2023-10-28T14:55:56.927Z,6.32
2023-10-28T14:58:07.262Z,6.57
2023-10-28T15:00:06.011Z,6.25
2023-10-28T15:02:08.704Z,5.90
2023-10-28T15:04:10.174Z,5.78
2023-10-28T15:06:07.705Z,5.80
2023-10-28T15:08:00.850Z,5.30
2023-10-28T15:09:59.448Z,5.40
2023-10-28T15:11:55.147Z,4.90
2023-10-28T15:13:50.431Z,5.60
2023-10-28T15:15:48.724Z,5.57
2023-10-28T15:17:43.280Z,4.43
2023-10-28T15:19:40.400Z,4.70
2023-10-28T15:21:49.788Z,4.80
2023-10-28T15:24:01.072Z,5.17
2023-10-28T15:25:59.053Z,5.40
2023-10-28T15:27:56.615Z,4.97
2023-10-28T15:29:53.771Z,5.33
2023-10-28T15:31:55.781Z,5.00
2023-10-28T15:33:52.560Z,11.87
2023-10-28T15:35:45.836Z,10.70
2023-10-28T15:37:41.059Z,4.37
2023-10-28T15:39:57.975Z,4.43
2023-10-28T15:41:54.196Z,3.88
2023-10-28T15:44:06.038Z,4.33
2023-10-28T15:46:08.003Z,4.90
2023-10-28T15:48:09.585Z,5.57
2023-10-28T15:50:06.848Z,5.03
2023-10-28T15:52:02.094Z,4.77
2023-10-28T15:53:57.565Z,5.53
2023-10-28T15:55:50.109Z,5.67
2023-10-28T15:57:45.166Z,6.33
2023-10-28T15:59:40.542Z,6.27
2023-10-28T16:01:35.857Z,5.13
2023-10-28T16:03:33.886Z,5.70
2023-10-28T16:05:29.524Z,4.83
2023-10-28T16:07:42.576Z,5.00
2023-10-28T16:10:07.151Z,5.87
2023-10-28T16:12:57.587Z,5.37
2023-10-28T16:14:54.462Z,4.83
2023-10-28T16:17:19.130Z,4.20
2023-10-28T16:19:51.074Z,9.03
2023-10-28T16:22:25.731Z,5.97
2023-10-28T16:24:30.778Z,5.30
2023-10-28T16:26:38.289Z,5.30
2023-10-28T16:28:34.197Z,6.70
2023-10-28T16:30:30.102Z,21.53
2023-10-28T16:32:25.671Z,12.00
2023-10-28T16:34:23.565Z,7.87
2023-10-28T16:37:14.428Z,7.63
2023-10-28T16:40:13.097Z,6.07
2023-10-28T17:06:53.078Z,7.93
2023-10-28T17:24:05.030Z,8.27
2023-10-28T17:26:06.611Z,9.60
2023-10-28T17:28:02.608Z,5.00
2023-10-28T17:30:08.708Z,5.40
2023-10-28T17:32:15.654Z,4.20
2023-10-28T17:34:08.450Z,5.43
2023-10-28T17:36:13.946Z,5.17
2023-10-28T17:38:06.942Z,5.23
2023-10-28T17:40:30.883Z,5.27
2023-10-28T17:42:35.499Z,5.60
2023-10-28T17:44:37.360Z,5.80
2023-10-28T17:46:38.944Z,6.10
2023-10-28T17:48:34.348Z,6.27
2023-10-28T17:50:29.703Z,6.20
2023-10-28T17:52:43.938Z,5.97
2023-10-28T17:54:42.891Z,5.30
2023-10-28T17:57:31.820Z,6.07
2023-10-28T17:59:29.118Z,5.70
2023-10-28T18:01:27.713Z,6.37
2023-10-28T18:03:25.862Z,6.50
2023-10-28T18:05:32.555Z,6.37
2023-10-28T18:07:43.646Z,6.30
2023-10-28T18:09:40.141Z,6.50
2023-10-28T18:11:41.349Z,5.40
2023-10-28T18:13:49.201Z,6.10
2023-10-28T18:16:04.319Z,5.30
2023-10-28T18:18:02.887Z,5.33
2023-10-28T18:20:00.396Z,4.67
2023-10-28T18:21:58.913Z,4.90
2023-10-28T18:26:57.330Z,4.90
2023-10-28T18:28:58.538Z,4.70
2023-10-28T18:31:26.868Z,5.37
2023-10-28T18:33:43.403Z,4.53
2023-10-28T18:35:42.674Z,5.03
2023-10-28T18:37:46.733Z,4.87
2023-10-28T18:39:42.654Z,4.90
2023-10-28T18:43:58.468Z,4.47
2023-10-28T18:45:54.648Z,3.93
2023-10-28T18:47:56.733Z,5.10
2023-10-28T18:49:58.453Z,4.90
2023-10-28T18:51:55.368Z,6.77
2023-10-28T18:54:24.112Z,4.87
2023-10-28T18:56:30.174Z,4.97
2023-10-28T18:58:26.309Z,4.40
2023-10-28T19:00:22.658Z,4.53
2023-10-28T19:02:34.572Z,4.37
2023-10-28T19:04:51.994Z,4.83
2023-10-28T19:06:47.826Z,4.50
2023-10-28T19:08:47.371Z,4.53
2023-10-28T19:10:44.156Z,5.57
2023-10-28T19:12:42.597Z,4.93
2023-10-28T19:14:36.484Z,4.80
2023-10-28T19:16:32.120Z,25.30
2023-10-28T19:18:27.673Z,7.77
2023-10-28T19:20:26.167Z,6.43
2023-10-28T19:22:21.208Z,5.83
2023-10-28T19:24:16.806Z,6.17
2023-10-28T19:26:16.732Z,5.70
2023-10-28T19:28:35.040Z,5.53
2023-10-28T19:30:33.820Z,5.83
2023-10-28T19:32:34.074Z,6.17
2023-10-28T19:34:34.035Z,5.30
2023-10-28T19:36:32.879Z,5.20
2023-10-28T19:39:06.927Z,6.17
2023-10-28T19:41:30.123Z,4.90
2023-10-28T19:44:05.302Z,5.80
2023-10-28T19:46:10.486Z,12.57
2023-10-28T19:48:30.682Z,9.83
2023-10-28T19:50:37.213Z,6.17
2023-10-28T19:54:57.602Z,5.80
2023-10-28T19:57:21.578Z,5.40
2023-10-28T19:59:18.216Z,5.00
2023-10-28T20:01:18.995Z,4.60
2023-10-28T20:03:36.439Z,4.10
2023-10-28T20:05:46.858Z,4.60
2023-10-28T20:07:43.150Z,4.03
2023-10-28T20:09:36.438Z,4.07
2023-10-28T20:11:31.832Z,3.90
2023-10-28T20:13:24.722Z,4.60
2023-10-28T20:15:23.097Z,4.83
2023-10-28T20:17:18.687Z,4.90
2023-10-28T20:19:11.781Z,5.00
2023-10-28T20:21:07.135Z,4.37
2023-10-28T20:23:02.676Z,4.97
2023-10-28T20:24:59.884Z,5.20
2023-10-28T20:27:03.594Z,4.53
2023-10-28T20:28:57.507Z,5.83
2023-10-28T20:31:01.792Z,10.83
2023-10-28T20:32:57.951Z,9.43
2023-10-28T20:34:55.994Z,5.40
2023-10-28T20:36:57.976Z,4.90
2023-10-28T20:38:51.632Z,4.33
2023-10-28T20:40:47.188Z,4.47
2023-10-28T20:42:42.982Z,4.77
2023-10-28T20:44:40.994Z,4.33
2023-10-28T20:46:43.089Z,4.67
2023-10-28T20:48:39.633Z,4.37
2023-10-28T20:50:38.552Z,5.30
2023-10-28T20:52:34.842Z,4.20
2023-10-28T20:54:31.160Z,4.50
2023-10-28T20:56:27.385Z,4.37
2023-10-28T20:58:24.845Z,4.60
2023-10-28T21:00:21.413Z,4.63
2023-10-28T21:02:20.738Z,17.50
2023-10-28T21:04:18.983Z,14.37
2023-10-28T21:06:15.437Z,4.90
2023-10-28T21:08:12.667Z,4.67
2023-10-28T21:10:29.154Z,4.93
2023-10-28T21:12:34.518Z,4.97
2023-10-28T21:14:30.503Z,5.23
2023-10-28T21:16:25.915Z,5.13
2023-10-28T21:18:22.236Z,5.77
2023-10-28T21:20:17.894Z,4.90
2023-10-28T21:22:13.179Z,5.20
2023-10-28T21:24:10.257Z,5.00
2023-10-28T21:26:08.489Z,4.73
2023-10-28T21:28:08.507Z,4.97
2023-10-28T21:30:04.570Z,4.57
2023-10-28T21:32:34.137Z,4.37
2023-10-28T21:34:53.009Z,4.40
2023-10-28T21:36:46.560Z,4.80
2023-10-28T21:39:02.110Z,4.50
2023-10-28T21:44:51.324Z,3.90
2023-10-28T21:47:33.379Z,3.93
2023-10-28T21:49:29.594Z,4.20
2023-10-28T21:51:27.972Z,4.80
2023-10-28T21:53:24.029Z,4.17
2023-10-28T21:55:16.793Z,4.97
2023-10-28T21:57:13.279Z,4.60
2023-10-28T21:59:12.125Z,4.63
2023-10-28T22:01:07.325Z,4.53
2023-10-28T22:03:12.432Z,4.50
2023-10-28T22:05:23.328Z,4.70
2023-10-28T22:07:26.641Z,5.43
2023-10-28T22:09:20.094Z,4.03
2023-10-28T22:11:16.539Z,4.43
2023-10-28T22:13:14.963Z,3.90
2023-10-28T22:15:10.960Z,4.73
2023-10-28T22:17:08.289Z,4.70
2023-10-28T22:19:05.464Z,4.27
2023-10-28T22:21:01.477Z,4.50
2023-10-28T22:22:56.825Z,4.63
2023-10-28T22:24:54.065Z,4.90
2023-10-28T22:26:48.558Z,4.10
2023-10-28T22:28:44.586Z,4.77
2023-10-28T22:30:40.273Z,3.90
2023-10-28T22:32:36.193Z,4.23
2023-10-28T22:34:31.615Z,3.70
2023-10-28T22:36:35.616Z,4.07
2023-10-28T22:38:39.084Z,3.93
2023-10-28T22:41:14.353Z,3.57
2023-10-28T22:43:24.065Z,4.17
2023-10-28T22:45:33.281Z,3.70
2023-10-28T22:47:45.019Z,4.10
2023-10-28T22:50:14.505Z,4.03
2023-10-28T22:55:53.007Z,4.20
2023-10-28T22:58:24.876Z,4.40
2023-10-28T23:00:22.930Z,4.57
2023-10-28T23:02:44.704Z,4.40
2023-10-28T23:04:51.045Z,4.37
2023-10-28T23:07:29.088Z,4.90
2023-10-28T23:09:31.219Z,4.10
2023-10-28T23:11:31.639Z,4.30
2023-10-28T23:13:25.090Z,4.57
2023-10-28T23:15:20.706Z,3.93
2023-10-28T23:17:15.730Z,3.93
2023-10-28T23:19:11.833Z,3.67
2023-10-28T23:21:30.546Z,3.80
2023-10-28T23:23:26.970Z,3.97
2023-10-28T23:25:23.979Z,3.60
2023-10-28T23:27:24.584Z,3.80
2023-10-28T23:29:19.459Z,3.80
2023-10-28T23:31:18.198Z,3.67
2023-10-28T23:33:16.295Z,3.33
2023-10-28T23:35:25.369Z,3.53
2023-10-28T23:37:37.266Z,3.50
2023-10-28T23:39:41.022Z,3.57
2023-10-28T23:41:53.563Z,3.43
2023-10-28T23:44:33.877Z,3.37
